Time;durP1;ratioP1;P1;durP2;ratioP2;P2;SDS_P1;SDS_P2;PMS_P1;PMS_P2;Temp;Humidity;BMP_temperature;BMP_pressure;BME280_temperature;BME280_humidity;BME280_pressure;Samples;Min_cycle;Max_cycle;Signal;HPM_P1;HPM_P2
2024/03/13 00:01:23;;;;;;;;;;;;;;;13.64;63.11;100716.53;5091177;28;19924;-80
2024/03/13 00:04:15;;;;;;;;;;;;;;;13.52;63.32;100711.00;5097851;28;19920;-80
2024/03/13 00:07:07;;;;;;;;;;;;;;;13.43;64.11;100718.50;5108025;28;20301;-81
2024/03/13 00:09:59;;;;;;;;;;;;;;;13.53;64.53;100715.34;5080390;28;19920;-80
2024/03/13 00:12:51;;;;;;;;;;;;;;;13.43;64.87;100710.28;5082410;28;19920;-80
2024/03/13 00:15:43;;;;;;;;;;;;;;;13.32;66.17;100703.63;5091679;28;19920;-80
2024/03/13 00:18:35;;;;;;;;;;;;;;;13.43;66.27;100704.81;5113403;28;19916;-81
2024/03/13 00:21:35;;;;;;;;;;;;;;;13.45;66.16;100691.66;5110515;28;20376;-81
2024/03/13 00:24:26;;;;;;;;;;;;;;;13.67;65.99;100695.94;5114237;28;20296;-81
2024/03/13 00:27:18;;;;;;;;;;;;;;;13.71;65.71;100697.66;5086096;28;19916;-81
2024/03/13 00:30:08;;;;;;;;;;;;;;;13.75;65.47;100692.31;5096779;28;20389;-81
2024/03/13 00:32:57;;;;;;;;;;;;;;;13.86;65.47;100692.72;5085613;28;19916;-80
2024/03/13 00:35:49;;;;;;;;;;;;;;;13.81;65.06;100690.19;5080779;28;19920;-80
2024/03/13 00:38:39;;;;;;;;;;;;;;;13.86;65.17;100692.72;5096401;28;19920;-80
2024/03/13 00:41:31;;;;;;;;;;;;;;;13.79;64.26;100690.50;5093579;28;19916;-80
2024/03/13 00:44:20;;;;;;;;;;;;;;;13.70;63.81;100695.28;5087120;28;19928;-80
2024/03/13 00:47:19;;;;;;;;;;;;;;;13.70;63.95;100696.06;5072375;28;19924;-80
2024/03/13 00:50:11;;;;;;;;;;;;;;;13.70;63.70;100695.28;5080037;28;19916;-81
2024/03/13 00:53:04;;;;;;;;;;;;;;;13.53;63.94;100695.44;5099234;28;19919;-81
2024/03/13 00:55:56;;;;;;;;;;;;;;;13.57;63.90;100696.34;5113468;28;19916;-82
2024/03/13 00:58:48;;;;;;;;;;;;;;;13.60;63.69;100695.69;5105045;28;19916;-81
2024/03/13 01:01:40;;;;;;;;;;;;;;;13.52;63.05;100697.34;5093164;28;20300;-81
2024/03/13 01:04:35;;;;;;;;;;;;;;;13.53;63.34;100692.69;5098577;28;19920;-81
2024/03/13 01:07:24;;;;;;;;;;;;;;;13.49;62.05;100687.09;5113798;28;20376;-80
2024/03/13 01:10:16;;;;;;;;;;;;;;;13.46;62.18;100689.72;5093823;28;19916;-81
2024/03/13 01:13:05;;;;;;;;;;;;;;;13.58;62.25;100687.81;5086602;28;20390;-81
2024/03/13 01:15:55;;;;;;;;;;;;;;;13.55;61.79;100677.56;5075875;28;19920;-80
2024/03/13 01:18:50;;;;;;;;;;;;;;;13.51;61.38;100679.34;5098298;28;20393;-81
2024/03/13 01:21:42;;;;;;;;;;;;;;;13.45;61.36;100680.72;5089688;28;19915;-80
2024/03/13 01:24:34;;;;;;;;;;;;;;;13.49;61.14;100675.38;5092276;28;20308;-81
2024/03/13 01:27:28;;;;;;;;;;;;;;;13.51;61.15;100670.38;5097967;28;19916;-80
2024/03/13 01:30:21;;;;;;;;;;;;;;;13.52;60.70;100666.50;5084461;28;19916;-81
2024/03/13 01:33:13;;;;;;;;;;;;;;;13.52;60.39;100667.31;5080887;28;19916;-81
2024/03/13 01:36:05;;;;;;;;;;;;;;;13.53;60.21;100668.09;5082862;28;19916;-80
2024/03/13 01:38:54;;;;;;;;;;;;;;;13.52;60.91;100663.78;5091973;28;19920;-81
2024/03/13 02:03:46;;;;;;;;;;;;;;;13.27;60.92;100665.59;5069883;28;19924;-80
2024/03/13 02:06:38;;;;;;;;;;;;;;;13.25;60.73;100662.41;5085533;28;19920;-80
2024/03/13 02:09:30;;;;;;;;;;;;;;;13.27;60.48;100665.59;5088788;28;20300;-80
2024/03/13 02:12:22;;;;;;;;;;;;;;;13.26;60.41;100664.78;5100303;28;19920;-80
2024/03/13 02:15:14;;;;;;;;;;;;;;;13.14;60.77;100663.94;5100719;28;20404;-81
2024/03/13 02:18:15;;;;;;;;;;;;;;;13.07;61.07;100666.38;5080594;28;19916;-80
2024/03/13 02:21:07;;;;;;;;;;;;;;;13.06;60.53;100664.78;5083791;28;19916;-81
2024/03/13 02:23:57;;;;;;;;;;;;;;;12.94;61.14;100670.97;5091018;28;19924;-80
2024/03/13 02:26:49;;;;;;;;;;;;;;;13.07;60.76;100671.84;5074799;28;19927;-81
2024/03/13 02:29:41;;;;;;;;;;;;;;;13.10;60.32;100668.47;5090524;28;20407;-81
2024/03/13 02:32:33;;;;;;;;;;;;;;;13.09;59.79;100664.94;5089648;28;19919;-78
2024/03/13 02:35:25;;;;;;;;;;;;;;;13.17;60.00;100652.34;5115263;28;19919;-81
2024/03/13 02:38:14;;;;;;;;;;;;;;;13.05;60.09;100664.00;5115393;28;19916;-80
2024/03/13 02:41:06;;;;;;;;;;;;;;;13.14;59.92;100651.09;5106740;28;20312;-81
2024/03/13 02:43:58;;;;;;;;;;;;;;;13.05;60.36;100653.09;5102471;28;19920;-81
2024/03/13 02:46:50;;;;;;;;;;;;;;;13.07;60.54;100653.53;5109562;28;19919;-80
2024/03/13 02:49:43;;;;;;;;;;;;;;;13.05;60.85;100658.53;5105268;28;19915;-80
2024/03/13 02:52:35;;;;;;;;;;;;;;;13.06;60.64;100656.59;5080465;28;19920;-80
2024/03/13 02:55:27;;;;;;;;;;;;;;;13.04;60.88;100658.88;5109828;28;20400;-80
2024/03/13 02:58:19;;;;;;;;;;;;;;;12.97;60.87;100655.84;5077350;28;19917;-80
2024/03/13 03:01:11;;;;;;;;;;;;;;;12.91;61.04;100652.53;5102244;28;19920;-80
2024/03/13 03:04:09;;;;;;;;;;;;;;;12.91;61.06;100654.44;5084939;28;19920;-81
2024/03/13 03:06:59;;;;;;;;;;;;;;;13.00;61.61;100657.94;5099187;28;19915;-81
2024/03/13 03:09:50;;;;;;;;;;;;;;;12.95;60.99;100652.69;5114701;28;20130;-80
2024/03/13 03:12:43;;;;;;;;;;;;;;;12.94;60.97;100662.00;5114716;28;19916;-80
2024/03/13 03:15:35;;;;;;;;;;;;;;;12.88;60.66;100660.56;5113523;28;19920;-80
2024/03/13 03:18:27;;;;;;;;;;;;;;;12.90;60.98;100670.03;5114751;28;19916;-82
2024/03/13 03:21:19;;;;;;;;;;;;;;;12.88;60.70;100660.56;5114533;28;19916;-80
2024/03/13 03:24:11;;;;;;;;;;;;;;;12.85;61.11;100662.81;5116091;28;19923;-80
2024/03/13 03:27:01;;;;;;;;;;;;;;;12.89;60.18;100664.91;5114519;28;19916;-80
2024/03/13 03:29:53;;;;;;;;;;;;;;;12.77;60.65;100663.69;5104272;28;19915;-80
2024/03/13 03:32:44;;;;;;;;;;;;;;;12.92;60.42;100665.03;5116781;28;19920;-80
2024/03/13 03:35:36;;;;;;;;;;;;;;;12.88;60.33;100653.19;5084658;28;19920;-80
2024/03/13 03:38:29;;;;;;;;;;;;;;;12.89;59.94;100654.78;5114346;28;19919;-80
2024/03/13 03:41:18;;;;;;;;;;;;;;;12.85;60.11;100654.63;5114363;28;19920;-81
2024/03/13 03:44:11;;;;;;;;;;;;;;;12.79;60.19;100666.91;5098188;28;19919;-80
2024/03/13 03:47:03;;;;;;;;;;;;;;;12.85;60.37;100664.75;5103099;28;19916;-81
2024/03/13 03:49:54;;;;;;;;;;;;;;;12.84;60.63;100658.53;5100669;28;20380;-81
2024/03/13 03:52:47;;;;;;;;;;;;;;;12.85;59.98;100668.28;5104099;28;20380;-81
2024/03/13 03:55:36;;;;;;;;;;;;;;;12.85;59.66;100662.81;5114052;28;19916;-81
2024/03/13 03:58:28;;;;;;;;;;;;;;;12.83;59.89;100667.84;5113990;28;19916;-80
2024/03/13 04:01:20;;;;;;;;;;;;;;;12.83;59.52;100654.19;5118193;28;20388;-81
2024/03/13 04:04:10;;;;;;;;;;;;;;;12.92;59.45;100658.78;5113839;28;20384;-81
2024/03/13 04:07:02;;;;;;;;;;;;;;;12.91;59.46;100657.97;5113635;28;19920;-81
2024/03/13 04:09:54;;;;;;;;;;;;;;;13.00;58.77;100658.75;5102278;28;19915;-80
2024/03/13 04:12:46;;;;;;;;;;;;;;;12.93;59.08;100654.94;5113602;28;20384;-80
2024/03/13 04:15:36;;;;;;;;;;;;;;;12.97;60.38;100653.13;5104211;28;19920;-81
2024/03/13 04:18:28;;;;;;;;;;;;;;;12.89;60.35;100654.00;5116655;28;19920;-81
2024/03/13 04:21:20;;;;;;;;;;;;;;;12.88;60.00;100655.13;5105363;28;19916;-80
2024/03/13 04:24:12;;;;;;;;;;;;;;;12.91;60.30;100655.25;5104042;28;19920;-81
2024/03/13 04:27:04;;;;;;;;;;;;;;;12.85;59.61;100651.91;5103407;28;19919;-80
2024/03/13 04:29:53;;;;;;;;;;;;;;;12.90;59.38;100658.34;5112776;28;19916;-80
2024/03/13 04:32:45;;;;;;;;;;;;;;;13.00;59.45;100660.66;5113250;28;20292;-82
2024/03/13 04:35:34;;;;;;;;;;;;;;;12.97;59.00;100662.13;5100419;28;20304;-80
2024/03/13 04:38:20;;;;;;;;;;;;;;;12.89;59.38;100662.19;5097913;28;20304;-82
2024/03/13 04:41:15;;;;;;;;;;;;;;;12.91;59.57;100673.56;5113085;28;19916;-80
2024/03/13 04:44:07;;;;;;;;;;;;;;;12.88;59.74;100672.31;5113957;28;19920;-80
2024/03/13 04:46:57;;;;;;;;;;;;;;;12.84;59.69;100676.81;5112847;28;20368;-80
2024/03/13 04:49:49;;;;;;;;;;;;;;;12.90;59.53;100672.75;5112782;28;19919;-81
2024/03/13 04:52:41;;;;;;;;;;;;;;;12.91;59.34;100690.72;5098678;28;20293;-81
2024/03/13 04:55:36;;;;;;;;;;;;;;;12.81;59.55;100685.66;5090983;28;20396;-81
2024/03/13 04:58:33;;;;;;;;;;;;;;;12.79;59.71;100688.75;5113946;28;19916;-82
2024/03/13 05:01:25;;;;;;;;;;;;;;;12.79;59.97;100686.00;5112823;28;20292;-80
2024/03/13 05:04:17;;;;;;;;;;;;;;;12.89;60.92;100690.28;5114250;28;19920;-80
2024/03/13 05:07:10;;;;;;;;;;;;;;;12.74;60.28;100688.13;5087024;28;20402;-81
2024/03/13 05:10:03;;;;;;;;;;;;;;;12.84;59.68;100699.47;5105723;28;19916;-80
2024/03/13 05:12:54;;;;;;;;;;;;;;;13.02;59.93;100696.59;5109671;28;19924;-79
2024/03/13 05:15:44;;;;;;;;;;;;;;;12.94;59.42;100705.66;5066158;28;19916;-81
2024/03/13 05:18:36;;;;;;;;;;;;;;;12.62;59.66;100694.28;5071617;28;19916;-81
2024/03/13 05:21:31;;;;;;;;;;;;;;;12.71;60.50;100700.47;5085828;28;19916;-81
2024/03/13 05:24:23;;;;;;;;;;;;;;;12.65;60.39;100709.97;5096704;28;19924;-82
2024/03/13 05:27:15;;;;;;;;;;;;;;;12.51;60.31;100720.31;5114639;28;19915;-81
2024/03/13 05:30:08;;;;;;;;;;;;;;;12.35;60.01;100722.00;5109880;28;19916;-81
2024/03/13 05:33:00;;;;;;;;;;;;;;;12.30;60.68;100722.97;5086441;28;19920;-81
2024/03/13 05:35:52;;;;;;;;;;;;;;;12.22;61.21;100731.19;5085419;28;20384;-80
2024/03/13 05:38:44;;;;;;;;;;;;;;;11.96;61.98;100737.50;5091719;28;19916;-80
2024/03/13 05:41:36;;;;;;;;;;;;;;;12.06;61.95;100736.34;5092481;28;19924;-80
2024/03/13 05:44:23;;;;;;;;;;;;;;;12.11;61.89;100735.38;5106802;27;19920;-81
2024/03/13 05:47:15;;;;;;;;;;;;;;;12.07;61.93;100742.63;5090594;28;20376;-81
2024/03/13 05:50:04;;;;;;;;;;;;;;;12.17;62.59;100740.34;5093762;28;19916;-81
2024/03/13 05:52:51;;;;;;;;;;;;;;;12.24;62.74;100742.59;5092750;28;19920;-80
2024/03/13 05:55:43;;;;;;;;;;;;;;;12.21;62.41;100748.66;5096003;28;19920;-81
2024/03/13 05:58:35;;;;;;;;;;;;;;;11.43;64.50;100748.72;5091484;28;19920;-80
2024/03/13 06:01:26;;;;;;;;;;;;;;;11.87;65.25;100738.66;5075604;28;19916;-82
2024/03/13 06:04:16;;;;;;;;;;;;;;;12.09;65.28;100740.38;5088448;28;19928;-83
2024/03/13 06:07:08;;;;;;;;;;;;;;;11.86;64.92;100737.84;5080350;28;19916;-81
2024/03/13 06:10:00;;;;;;;;;;;;;;;12.06;65.42;100744.53;5076233;28;19916;-81
2024/03/13 06:12:49;;;;;;;;;;;;;;;11.86;64.95;100759.66;5080264;28;19916;-82
2024/03/13 06:15:41;;;;;;;;;;;;;;;11.77;66.20;100760.78;5078763;28;20305;-83
2024/03/13 06:18:33;;;;;;;;;;;;;;;11.83;66.01;100764.94;5090769;28;20300;-81
2024/03/13 06:21:20;;;;;;;;;;;;;;;11.87;65.74;100766.69;5080466;28;19920;-83
2024/03/13 06:24:12;;;;;;;;;;;;;;;11.56;66.77;100769.56;5080309;28;20297;-82
2024/03/13 06:27:15;;;;;;;;;;;;;;;11.63;66.83;100771.00;5097943;28;19916;-81
2024/03/13 06:30:06;;;;;;;;;;;;;;;10.09;72.29;100770.19;5086674;28;19920;-76
2024/03/13 06:32:58;;;;;;;;;;;;;;;10.54;72.97;100772.84;5085423;28;19916;-76
2024/03/13 06:35:50;;;;;;;;;;;;;;;9.98;73.54;100776.19;5078679;28;19916;-76
2024/03/13 06:38:42;;;;;;;;;;;;;;;10.00;76.21;100788.34;5091989;28;19920;-77
2024/03/13 06:41:34;;;;;;;;;;;;;;;9.49;78.34;100790.66;5098959;28;19923;-76
2024/03/13 06:44:23;;;;;;;;;;;;;;;10.34;76.61;100797.84;5100666;28;20408;-76
2024/03/13 06:47:15;;;;;;;;;;;;;;;10.93;73.42;100791.88;5097848;28;19920;-77
2024/03/13 06:50:04;;;;;;;;;;;;;;;10.91;72.41;100796.84;5101605;28;19920;-76
2024/03/13 06:52:56;;;;;;;;;;;;;;;11.30;71.56;100800.59;5077452;28;19916;-76
2024/03/13 06:55:48;;;;;;;;;;;;;;;10.44;74.70;100800.31;5070922;28;20362;-76
2024/03/13 06:58:40;;;;;;;;;;;;;;;10.82;76.37;100806.88;5060047;28;19917;-76
2024/03/13 07:01:32;;;;;;;;;;;;;;;11.47;74.12;100815.06;5071856;28;19920;-79
2024/03/13 07:04:24;;;;;;;;;;;;;;;11.77;72.92;100821.53;5070514;28;19924;-80
2024/03/13 07:07:15;;;;;;;;;;;;;;;11.93;72.44;100824.56;5078409;28;19916;-80
2024/03/13 07:10:05;;;;;;;;;;;;;;;12.07;72.33;100819.75;5094678;28;19920;-81
2024/03/13 07:12:54;;;;;;;;;;;;;;;12.09;72.31;100814.75;5074305;28;19916;-80
2024/03/13 07:15:46;;;;;;;;;;;;;;;12.18;72.83;100822.94;5086635;28;19916;-80
2024/03/13 07:18:36;;;;;;;;;;;;;;;12.16;73.18;100817.00;5089169;28;19920;-81
2024/03/13 07:21:28;;;;;;;;;;;;;;;12.33;73.01;100817.78;5087630;28;19920;-79
2024/03/13 07:24:17;;;;;;;;;;;;;;;12.25;73.41;100825.94;5089868;28;19920;-82
2024/03/13 07:27:10;;;;;;;;;;;;;;;12.32;73.71;100826.28;5086453;28;20404;-80
2024/03/13 07:30:02;;;;;;;;;;;;;;;12.35;73.80;100826.41;5079032;28;20316;-83
2024/03/13 07:32:54;;;;;;;;;;;;;;;12.32;74.09;100831.72;5089488;28;19920;-81
2024/03/13 07:35:43;;;;;;;;;;;;;;;12.35;74.35;100820.97;5089542;28;19924;-82
2024/03/13 07:38:33;;;;;;;;;;;;;;;12.42;74.17;100821.28;5078141;28;19924;-81
2024/03/13 07:41:25;;;;;;;;;;;;;;;12.50;73.96;100827.00;5084964;28;19924;-80
2024/03/13 07:44:17;;;;;;;;;;;;;;;12.51;73.98;100823.97;5079437;28;20293;-80
2024/03/13 07:47:09;;;;;;;;;;;;;;;12.63;73.98;100835.03;5081061;28;19920;-79
2024/03/13 07:50:01;;;;;;;;;;;;;;;12.61;74.10;100840.00;5058471;28;19916;-81
2024/03/13 07:52:53;;;;;;;;;;;;;;;12.75;74.17;100845.22;5076362;28;20443;-81
2024/03/13 07:55:43;;;;;;;;;;;;;;;12.75;73.52;100851.50;5074678;28;19949;-80
2024/03/13 07:58:32;;;;;;;;;;;;;;;12.77;73.82;100840.25;5078158;28;19920;-80
2024/03/13 08:01:24;;;;;;;;;;;;;;;12.77;73.86;100843.78;5083401;28;19920;-80
2024/03/13 08:04:16;;;;;;;;;;;;;;;12.82;73.55;100851.00;5097263;28;19924;-80
2024/03/13 08:07:08;;;;;;;;;;;;;;;12.99;73.47;100855.59;5096898;28;19916;-79
2024/03/13 08:10:00;;;;;;;;;;;;;;;12.95;73.32;100857.38;5103656;28;19919;-80
2024/03/13 08:12:52;;;;;;;;;;;;;;;12.97;73.14;100866.03;5096102;28;19916;-80
2024/03/13 08:15:44;;;;;;;;;;;;;;;13.03;73.06;100862.81;5082063;28;19920;-81
2024/03/13 08:18:34;;;;;;;;;;;;;;;13.03;73.10;100862.81;5084971;28;20296;-80
2024/03/13 08:21:26;;;;;;;;;;;;;;;13.07;73.08;100862.94;5110574;28;19923;-80
2024/03/13 08:24:19;;;;;;;;;;;;;;;13.04;72.41;100866.34;5114734;28;20292;-80
2024/03/13 08:27:11;;;;;;;;;;;;;;;13.14;72.71;100872.25;5104066;28;20408;-80
2024/03/13 08:30:03;;;;;;;;;;;;;;;13.11;72.06;100885.72;5090861;28;19924;-80
2024/03/13 08:32:52;;;;;;;;;;;;;;;13.19;72.02;100890.41;5060477;28;20401;-80
2024/03/13 08:35:45;;;;;;;;;;;;;;;13.19;71.85;100888.47;5072073;28;19920;-80
2024/03/13 08:38:37;;;;;;;;;;;;;;;13.20;72.03;100889.28;5094700;28;19915;-79
2024/03/13 08:41:29;;;;;;;;;;;;;;;13.20;71.59;100889.28;5098060;28;19916;-81
2024/03/13 08:44:23;;;;;;;;;;;;;;;13.33;71.26;100904.63;5114006;28;19920;-79
2024/03/13 08:47:16;;;;;;;;;;;;;;;13.31;71.48;100906.09;5101306;28;19919;-80
2024/03/13 08:50:08;;;;;;;;;;;;;;;13.29;71.41;100911.88;5113421;28;19916;-81
2024/03/13 08:53:00;;;;;;;;;;;;;;;13.17;71.97;100906.28;5112829;28;19924;-80
2024/03/13 08:55:47;;;;;;;;;;;;;;;13.26;72.02;100920.69;5115110;28;19916;-80
2024/03/13 08:58:39;;;;;;;;;;;;;;;13.23;71.42;100910.44;5112303;28;19915;-80
2024/03/13 09:01:28;;;;;;;;;;;;;;;13.37;71.29;100913.75;5116339;28;19920;-80
2024/03/13 09:04:17;;;;;;;;;;;;;;;13.42;71.16;100913.56;5114196;28;19920;-81
2024/03/13 09:07:10;;;;;;;;;;;;;;;13.51;70.81;100917.03;5112574;28;19916;-80
2024/03/13 09:10:02;;;;;;;;;;;;;;;13.49;71.27;100932.19;5090747;28;20396;-78
2024/03/13 09:12:53;;;;;;;;;;;;;;;13.48;71.11;100920.44;5100113;28;19916;-79
2024/03/13 09:15:44;;;;;;;;;;;;;;;13.49;70.60;100922.06;5072128;28;19931;-80
2024/03/13 09:18:36;;;;;;;;;;;;;;;13.55;70.99;100922.66;5074132;28;19924;-80
2024/03/13 09:21:26;;;;;;;;;;;;;;;13.59;70.99;100916.22;5072010;28;20385;-79
2024/03/13 09:24:17;;;;;;;;;;;;;;;13.68;70.64;100922.41;5096793;28;19920;-80
2024/03/13 09:27:09;;;;;;;;;;;;;;;13.84;70.87;100928.13;5088000;28;19915;-81
2024/03/13 09:30:03;;;;;;;;;;;;;;;13.81;69.66;100930.72;5069232;28;19920;-80
2024/03/13 09:32:52;;;;;;;;;;;;;;;13.87;69.46;100927.44;5080319;28;19916;-78
2024/03/13 09:35:44;;;;;;;;;;;;;;;13.85;69.17;100926.19;5094127;28;19916;-80
2024/03/13 09:38:33;;;;;;;;;;;;;;;13.89;69.38;100927.13;5104833;28;19919;-80
2024/03/13 09:41:25;;;;;;;;;;;;;;;13.90;69.32;100926.78;5103417;28;19915;-80
2024/03/13 09:44:17;;;;;;;;;;;;;;;13.95;69.42;100934.81;5092125;28;19916;-81
2024/03/13 09:47:09;;;;;;;;;;;;;;;14.01;69.42;100933.47;5091645;28;19920;-80
2024/03/13 09:50:02;;;;;;;;;;;;;;;14.11;69.68;100940.47;5099296;28;19915;-80
2024/03/13 09:52:56;;;;;;;;;;;;;;;13.90;69.24;100928.72;5111719;28;19915;-80
2024/03/13 09:55:45;;;;;;;;;;;;;;;14.09;69.13;100934.53;5095414;28;21929;-79
2024/03/13 09:58:38;;;;;;;;;;;;;;;14.14;68.84;100939.81;5082744;28;19920;-81
2024/03/13 10:01:34;;;;;;;;;;;;;;;14.11;68.45;100945.94;5111791;28;19915;-83
2024/03/13 10:04:24;;;;;;;;;;;;;;;14.10;68.93;100942.41;5078835;28;20432;-84
2024/03/13 10:07:17;;;;;;;;;;;;;;;14.17;69.11;100950.06;5098978;28;19920;-82
2024/03/13 10:10:17;;;;;;;;;;;;;;;14.11;68.50;100944.00;5096576;28;20327;-81
2024/03/13 10:13:09;;;;;;;;;;;;;;;14.23;68.49;100954.19;5088946;28;19915;-83
2024/03/13 10:16:02;;;;;;;;;;;;;;;14.28;68.08;100958.66;5111756;28;19916;-85
2024/03/13 10:18:53;;;;;;;;;;;;;;;14.43;68.75;100945.22;5104033;28;20388;-82
2024/03/13 10:21:47;;;;;;;;;;;;;;;14.53;68.75;100944.00;5103716;28;19919;-84
2024/03/13 10:24:38;;;;;;;;;;;;;;;14.58;66.59;100953.97;5100167;28;19917;-83
2024/03/13 10:27:31;;;;;;;;;;;;;;;14.69;65.72;100955.13;5096677;28;19916;-82
2024/03/13 10:30:23;;;;;;;;;;;;;;;14.75;64.80;100953.78;5095494;28;19935;-82
2024/03/13 10:33:16;;;;;;;;;;;;;;;14.90;64.47;100950.41;5085752;28;19916;-82
2024/03/13 10:36:11;;;;;;;;;;;;;;;14.86;62.90;100949.50;5092167;28;19920;-82
2024/03/13 10:39:02;;;;;;;;;;;;;;;15.01;63.78;100957.06;5094956;28;20393;-82
2024/03/13 10:41:52;;;;;;;;;;;;;;;15.06;63.78;100959.59;5091608;28;19915;-82
2024/03/13 10:44:41;;;;;;;;;;;;;;;15.18;64.00;100954.13;5111172;28;20304;-82
2024/03/13 10:47:33;;;;;;;;;;;;;;;15.27;63.87;100949.34;5106308;28;20389;-83
2024/03/13 10:50:23;;;;;;;;;;;;;;;15.25;62.51;100951.63;5104497;28;20291;-83
2024/03/13 10:53:10;;;;;;;;;;;;;;;15.32;60.92;100951.06;5089810;28;19916;-83
2024/03/13 10:56:00;;;;;;;;;;;;;;;15.46;59.09;100950.72;5098044;28;19915;-81
2024/03/13 10:58:49;;;;;;;;;;;;;;;15.57;58.67;100952.69;5098867;28;19916;-82
2024/03/13 11:01:37;;;;;;;;;;;;;;;15.68;59.20;100940.13;5079740;28;19919;-83
2024/03/13 11:04:29;;;;;;;;;;;;;;;15.74;59.29;100941.50;5078727;28;19925;-84
2024/03/13 11:07:18;;;;;;;;;;;;;;;15.70;59.52;100942.53;5077537;28;19924;-81
2024/03/13 11:10:12;;;;;;;;;;;;;;;15.82;59.41;100945.25;5094252;28;20458;-84
2024/03/13 11:13:01;;;;;;;;;;;;;;;15.83;59.06;100944.13;5102464;28;19915;-84
2024/03/13 11:15:55;;;;;;;;;;;;;;;15.90;58.53;100938.84;5094287;28;19916;-85
2024/03/13 11:18:45;;;;;;;;;;;;;;;16.02;58.14;100940.78;5099326;28;19920;-83
2024/03/13 11:21:55;;;;;;;;;;;;;;;16.12;57.49;100941.09;5082314;28;19916;-85
2024/03/13 11:24:45;;;;;;;;;;;;;;;16.21;56.86;100933.50;5090129;28;20006;-84
2024/03/13 11:27:40;;;;;;;;;;;;;;;16.35;57.43;100935.91;5079356;28;19920;-83
2024/03/13 11:30:32;;;;;;;;;;;;;;;16.40;57.10;100932.09;5080214;28;19920;-84
2024/03/13 11:33:24;;;;;;;;;;;;;;;16.61;57.26;100928.00;5091460;28;19920;-84
2024/03/13 11:36:14;;;;;;;;;;;;;;;16.65;56.87;100920.69;5083348;28;19920;-85
2024/03/13 11:39:04;;;;;;;;;;;;;;;16.74;56.50;100923.28;5089063;28;19920;-85
2024/03/13 11:41:53;;;;;;;;;;;;;;;16.95;56.99;100918.34;5077488;28;19916;-86
2024/03/13 11:44:46;;;;;;;;;;;;;;;17.11;56.48;100912.88;5080633;28;19939;-83
2024/03/13 11:47:39;;;;;;;;;;;;;;;17.22;55.42;100908.41;5079282;28;19916;-83
2024/03/13 11:50:31;;;;;;;;;;;;;;;17.35;54.66;100909.13;5081259;28;19931;-85
2024/03/13 11:53:22;;;;;;;;;;;;;;;17.45;55.47;100912.13;5082464;28;19928;-84
2024/03/13 11:56:20;;;;;;;;;;;;;;;17.55;54.26;100902.53;5088527;28;20393;-83
2024/03/13 11:59:16;;;;;;;;;;;;;;;17.70;53.95;100890.72;5087588;28;19916;-84
2024/03/13 12:02:26;;;;;;;;;;;;;;;17.78;54.21;100889.72;5078181;28;19946;-83
2024/03/13 12:05:29;;;;;;;;;;;;;;;17.98;54.14;100889.78;5075729;28;19920;-83
2024/03/13 12:08:21;;;;;;;;;;;;;;;17.90;53.58;100884.09;5079504;28;19920;-84
2024/03/13 12:11:15;;;;;;;;;;;;;;;18.07;53.86;100884.84;5073653;28;19920;-82
2024/03/13 12:14:07;;;;;;;;;;;;;;;17.86;55.12;100880.50;5075405;28;19916;-82
2024/03/13 12:16:59;;;;;;;;;;;;;;;18.20;53.21;100884.34;5087369;28;19916;-82
2024/03/13 12:19:47;;;;;;;;;;;;;;;18.29;52.51;100867.59;5088494;28;20359;-85
2024/03/13 12:22:43;;;;;;;;;;;;;;;18.42;53.31;100869.03;5097408;28;19920;-84
2024/03/13 12:25:36;;;;;;;;;;;;;;;18.55;54.01;100866.94;5094067;28;19920;-84
2024/03/13 12:28:28;;;;;;;;;;;;;;;18.65;53.62;100867.16;5086207;28;19916;-84
2024/03/13 12:31:20;;;;;;;;;;;;;;;18.54;53.80;100857.13;5079718;28;19916;-84
2024/03/13 12:34:15;;;;;;;;;;;;;;;18.74;53.61;100864.16;5091275;28;19916;-83
2024/03/13 12:37:07;;;;;;;;;;;;;;;18.78;53.01;100848.50;5080561;28;20385;-84
2024/03/13 12:39:59;;;;;;;;;;;;;;;18.79;52.69;100855.59;5087161;28;19920;-85
2024/03/13 12:42:51;;;;;;;;;;;;;;;18.83;53.23;100856.44;5085143;28;19920;-84
2024/03/13 12:45:45;;;;;;;;;;;;;;;18.98;52.56;100840.94;5075288;28;19920;-85
2024/03/13 12:48:36;;;;;;;;;;;;;;;19.00;52.46;100847.66;5085243;28;19916;-83
2024/03/13 12:51:29;;;;;;;;;;;;;;;19.15;52.13;100845.94;5080353;28;19916;-84
2024/03/13 12:54:19;;;;;;;;;;;;;;;19.16;51.37;100842.81;5093105;28;19920;-84
2024/03/13 12:57:12;;;;;;;;;;;;;;;19.08;50.83;100834.81;5082011;28;19916;-85
2024/03/13 13:00:06;;;;;;;;;;;;;;;19.26;50.24;100846.91;5094081;28;19924;-83
2024/03/13 13:02:59;;;;;;;;;;;;;;;19.25;50.74;100839.03;5083000;28;19916;-84
2024/03/13 13:05:52;;;;;;;;;;;;;;;19.28;51.45;100847.34;5080276;28;19920;-84
2024/03/13 13:08:47;;;;;;;;;;;;;;;19.39;51.03;100847.50;5086920;28;20304;-85
2024/03/13 13:11:43;;;;;;;;;;;;;;;19.32;50.42;100839.91;5089892;28;19920;-83
2024/03/13 13:14:34;;;;;;;;;;;;;;;19.53;50.83;100833.94;5093335;28;19920;-84
2024/03/13 13:17:25;;;;;;;;;;;;;;;19.43;50.70;100838.13;5092586;28;20304;-83
2024/03/13 13:20:17;;;;;;;;;;;;;;;19.53;50.53;100829.22;5092260;28;19920;-84
2024/03/13 13:23:09;;;;;;;;;;;;;;;19.37;50.88;100825.81;5092429;28;19916;-84
2024/03/13 13:25:59;;;;;;;;;;;;;;;19.50;51.16;100820.91;5092408;28;19924;-84
2024/03/13 13:28:49;;;;;;;;;;;;;;;19.66;49.86;100826.25;5114078;28;19915;-83
2024/03/13 13:31:46;;;;;;;;;;;;;;;19.68;48.52;100816.41;5097523;28;20499;-83
2024/03/13 13:34:37;;;;;;;;;;;;;;;19.77;47.82;100819.69;5113267;28;19932;-82
2024/03/13 13:37:24;;;;;;;;;;;;;;;19.86;46.94;100824.94;5113390;28;19915;-83
2024/03/13 13:40:19;;;;;;;;;;;;;;;20.02;48.18;100825.50;5116735;28;19916;-84
2024/03/13 13:43:12;;;;;;;;;;;;;;;20.03;48.40;100821.59;5100378;28;19919;-84
2024/03/13 13:46:09;;;;;;;;;;;;;;;20.17;48.75;100810.69;5112640;28;19920;-85
2024/03/13 13:48:58;;;;;;;;;;;;;;;20.01;48.51;100810.13;5118016;28;19915;-84
2024/03/13 13:51:48;;;;;;;;;;;;;;;20.03;47.59;100816.06;5098993;28;19916;-85
2024/03/13 13:54:40;;;;;;;;;;;;;;;20.03;46.47;100808.56;5111552;28;19916;-84
2024/03/13 13:57:32;;;;;;;;;;;;;;;20.04;46.25;100810.16;5115581;28;19923;-85
2024/03/13 14:00:24;;;;;;;;;;;;;;;20.01;48.34;100810.13;5098710;28;20312;-84
2024/03/13 14:03:15;;;;;;;;;;;;;;;20.12;46.86;100805.50;5116756;28;19916;-84
2024/03/13 14:06:09;;;;;;;;;;;;;;;20.09;46.60;100806.28;5114087;28;19924;-84
2024/03/13 14:09:01;;;;;;;;;;;;;;;19.99;45.82;100806.94;5111747;28;19916;-84
2024/03/13 14:11:53;;;;;;;;;;;;;;;20.03;43.34;100807.78;5115943;28;19916;-84
2024/03/13 14:14:45;;;;;;;;;;;;;;;20.08;45.58;100804.69;5112514;28;19915;-85
2024/03/13 14:17:38;;;;;;;;;;;;;;;20.22;46.98;100796.53;5111492;28;20284;-84
2024/03/13 14:20:30;;;;;;;;;;;;;;;20.33;47.34;100800.25;5114980;28;19915;-84
2024/03/13 14:23:22;;;;;;;;;;;;;;;20.23;45.79;100798.16;5116184;28;19919;-83
2024/03/13 14:26:14;;;;;;;;;;;;;;;19.87;44.63;100793.38;5116988;28;19923;-86
2024/03/13 14:29:09;;;;;;;;;;;;;;;20.08;45.85;100788.13;5116088;28;19915;-84
2024/03/13 14:32:07;;;;;;;;;;;;;;;19.96;45.92;100796.66;5122686;28;19915;-85
2024/03/13 14:35:01;;;;;;;;;;;;;;;20.07;46.96;100786.53;5102477;28;19915;-85
2024/03/13 14:37:53;;;;;;;;;;;;;;;20.30;46.82;100787.19;5118421;28;19920;-86
2024/03/13 14:40:45;;;;;;;;;;;;;;;20.11;46.51;100789.34;5117887;28;19924;-84
2024/03/13 14:43:37;;;;;;;;;;;;;;;20.31;45.38;100786.03;5103429;28;19920;-85
2024/03/13 14:46:29;;;;;;;;;;;;;;;20.29;45.84;100790.31;5081629;28;20377;-85
2024/03/13 14:49:18;;;;;;;;;;;;;;;20.31;46.08;100779.72;5092840;28;19920;-85
2024/03/13 14:52:08;;;;;;;;;;;;;;;20.19;45.53;100786.28;5089849;28;19939;-84
2024/03/13 14:54:55;;;;;;;;;;;;;;;20.34;45.75;100785.28;5065642;28;20410;-85
2024/03/13 14:57:46;;;;;;;;;;;;;;;20.22;44.25;100777.22;5088844;28;19916;-84
2024/03/13 15:00:38;;;;;;;;;;;;;;;20.14;44.48;100786.59;5096688;28;19916;-87
2024/03/13 15:03:30;;;;;;;;;;;;;;;20.07;43.87;100781.00;5093594;28;19916;-83